KMDH Weather | Aviation | SIU

Home
Southern Illinois University

CONTACT

SIU.EDU

Aviation - Weather

College of Applied Sciences and Arts

KMDH Weather

NOTICE: Although all weather products are taken from the National Weather Service, this data should be used only as a supplement to a formal weather briefing.

Last Updated: Friday, August 14th, 2020, 3:18 am
Information on this page is updated every 5 minutes.


METARS

KMDH 140752Z AUTO 00000KT 10SM BKN004 22/21 A2996 RMK AO2 SLP141 T02220211

KMDH 140738Z AUTO 01003KT 10SM BKN004 22/21 A2996 RMK AO2 T02220211

KMDH 140729Z AUTO 00000KT 10SM SCT004 22/21 A2996 RMK AO2 T02220211

KMDH 140652Z AUTO 09003KT 10SM CLR 23/21 A2998 RMK AO2 SLP146 T02280211

KMDH 140635Z AUTO 05004KT 10SM SCT018 23/22 A2997 RMK AO2 T02280217

KMDH 140552Z AUTO 06005KT 10SM OVC020 23/22 A2999 RMK AO2 SLP150 T02330222 10261

KMDH 140545Z AUTO 06005KT 10SM BKN020 24/22 A2999 RMK AO2 T02390222

KMWA 140815Z AUTO 00000KT 7SM CLR 21/21 A2997 RMK AO2 T02080208

KMWA 140755Z AUTO 01003KT 10SM CLR 21/21 A2997 RMK AO2 T02100210

KMWA 140735Z AUTO 02003KT 7SM CLR 21/21 A2997 RMK AO2 T02070207

KMWA 140715Z AUTO 02003KT 10SM CLR 21/21 A2998 RMK AO2 T02100210

KMWA 140655Z AUTO 05003KT 10SM CLR 22/22 A2998 RMK AO2 T02160215

KMWA 140635Z AUTO 05005KT 10SM CLR 22/22 A2999 RMK AO2 T02150215

KMWA 140615Z AUTO 02004KT 10SM SCT095 22/22 A3000 RMK AO2 T02160216

KMWA 140555Z AUTO 02004KT 10SM SCT095 22/22 A3000 RMK AO2 T02230217 10258 20223

KMWA 140535Z AUTO 07005KT 10SM SCT015 SCT120 23/22 A3000 RMK AO2 T02280220

KCGI 140753Z AUTO 35003KT 10SM OVC046 23/22 A2994 RMK AO2 SLP136 T02330217

KCGI 140653Z AUTO 00000KT 10SM OVC120 23/22 A2995 RMK AO2 SLP138 T02330217

KCGI 140553Z AUTO 07005KT 10SM FEW085 OVC120 24/22 A2997 RMK AO2 SLP143

KSAR 140741Z AUTO 00000KT 3SM BR CLR 22/22 A2999 RMK AO2

KSAR 140721Z AUTO 00000KT 5SM BR CLR 22/22 A2999 RMK AO2

KSAR 140700Z AUTO 00000KT 5SM BR CLR 22/22 A3000 RMK AO2

KSAR 140641Z AUTO 00000KT 5SM BR CLR 22/22 A3000 RMK AO2

KSAR 140621Z AUTO 08003KT 5SM BR CLR 22/22 A3000 RMK AO2

KSAR 140601Z AUTO 07003KT 5SM BR CLR 22/22 A3000 RMK AO2

KSAR 140541Z AUTO 00000KT 5SM BR CLR 22/22 A3001 RMK AO2

KSAR 140521Z AUTO 00000KT 4SM BR CLR 22/22 A3001 RMK AO2

KFAM 140805Z AUTO 06003KT 1/4SM FG OVC002 22/22 A3000 RMK AO2

KFAM 140756Z AUTO 05004KT 1/2SM FG OVC002 22/22 A3000 RMK AO2 SLP157 T02220222

KFAM 140753Z AUTO 04004KT 1/2SM FG OVC002 22/22 A3000 RMK AO2

KFAM 140747Z AUTO 03003KT 1SM BR OVC002 22/22 A3000 RMK AO2

KFAM 140735Z AUTO 06004KT 2 1/2SM BR BKN002 22/22 A3000 RMK AO2

KFAM 140729Z AUTO 06005KT 5SM BR BKN004 22/22 A3000 RMK AO2

KFAM 140720Z AUTO 08003KT 6SM BR SCT004 21/21 A3000 RMK AO2

KFAM 140656Z AUTO 00000KT 7SM CLR 21/21 A3001 RMK AO2 SLP160 T02110211

KFAM 140556Z AUTO 00000KT 6SM BR CLR 21/21 A3001 RMK AO2 SLP163 T02110211 10267

KMVN 140809Z AUTO 00000KT 4SM BR SCT001 21/21 A2997 RMK AO2 PNO $

KMVN 140800Z AUTO 00000KT 3SM BR BKN001 21/21 A2997 RMK AO2 PNO $

KMVN 140756Z AUTO 00000KT 3/4SM BR BKN001 21/21 A2997 RMK AO2 SLP150 T02110211

KMVN 140740Z AUTO 05003KT 1/4SM FG BKN001 21/21 A2998 RMK AO2 PNO $

KMVN 140735Z AUTO 00000KT 3/4SM BR BKN001 21/21 A2998 RMK AO2 PNO $

KMVN 140733Z AUTO 00000KT 1 1/4SM BR BKN001 21/21 A2998 RMK AO2 PNO $

KMVN 140726Z AUTO 00000KT 1SM BR BKN001 22/21 A2998 RMK AO2 PNO $

KMVN 140709Z AUTO 00000KT 1/2SM FG VV001 21/21 A2998 RMK AO2 PNO $

KMVN 140704Z AUTO 00000KT 3/4SM BR VV002 21/21 A2999 RMK AO2 PNO $

KMVN 140701Z AUTO 00000KT 1 3/4SM BR CLR 22/21 A2998 RMK AO2 PNO $

KMVN 140656Z AUTO 00000KT 3SM BR CLR 22/22 A2999 RMK AO2 SLP153 T02170217 PNO $

KMVN 140556Z AUTO 00000KT 9SM CLR 23/22 A3000 RMK AO2 SLP158 6//// T02280222

KHSB 140815Z AUTO 36003KT 10SM CLR 21/21 A2996 RMK AO2 T02120207

KHSB 140755Z AUTO 00000KT 7SM CLR 21/20 A2996 RMK AO2 T02060202

KHSB 140735Z AUTO 00000KT 7SM CLR 21/20 A2996 RMK AO2 T02080204

KCIR 140755Z AUTO 00000KT 7SM OVC090 22/22 A2994 RMK AO2 T02200218

KCIR 140735Z AUTO 00000KT 7SM SCT060 OVC090 22/22 A2994 RMK AO2 T02180217

KPAH 140803Z AUTO 00000KT 7SM BKN005 23/21 A2994 RMK AO2 T02280211

KPAH 140753Z AUTO 00000KT 6SM BR SCT005 22/21 A2993 RMK AO2 SLP131 T02220211

KPOF 140724Z AUTO 00000KT 10SM SCT023 22/21 A2995 RMK AO2 T02220211 $

KFAM 140805Z AUTO 06003KT 1/4SM FG OVC002 22/22 A3000 RMK AO2

KFAM 140756Z AUTO 05004KT 1/2SM FG OVC002 22/22 A3000 RMK AO2 SLP157 T02220222

KFAM 140753Z AUTO 04004KT 1/2SM FG OVC002 22/22 A3000 RMK AO2

KFAM 140747Z AUTO 03003KT 1SM BR OVC002 22/22 A3000 RMK AO2

KFAM 140735Z AUTO 06004KT 2 1/2SM BR BKN002 22/22 A3000 RMK AO2

KFAM 140729Z AUTO 06005KT 5SM BR BKN004 22/22 A3000 RMK AO2

KFAM 140720Z AUTO 08003KT 6SM BR SCT004 21/21 A3000 RMK AO2

KBLV 140811Z 00000KT 2 1/4SM BR CLR 22/22 A2996 RMK AO2A VIS 2V2 1/2 SLP145

KBLV 140801Z 00000KT 2 1/4SM BR CLR 23/23 A2996 RMK AO2A VIS 2 1/4V6 SLP145

KBLV 140756Z 00000KT 4SM BR CLR 23/23 A2996 RMK AO2A VIS 2 1/4 RWY32R SLP145

KSUS 140754Z AUTO 00000KT 2SM BR FEW025 BKN044 22/21 A2997 RMK AO2 SLP141

KSUS 140739Z AUTO 00000KT 1 1/2SM BR FEW025 SCT042 22/21 A2998 RMK AO2 T02220211

KSUS 140731Z AUTO 00000KT 2SM BR FEW025 22/21 A2998 RMK AO2 T02170211

KSTL 140727Z 01004KT 7SM SCT024 SCT033 BKN130 25/22 A2999 RMK AO2 T02500222

KVIH 140753Z AUTO 10003KT 5SM BR CLR 21/21 A2999 RMK AO2 SLP144 T02110206

KENL 140815Z AUTO 00000KT 2SM BR SCT003 21/21 A2997 RMK AO2 T02100210

KENL 140755Z AUTO 00000KT 2SM BR CLR 22/22 A2997 RMK AO2 T02170217

KENL 140735Z AUTO 00000KT 3SM BR CLR 22/22 A2998 RMK AO2 T02160216

KMTO 140753Z AUTO 36004KT 10SM CLR 22/20 A2997 RMK AO2 SLP143 T02170200

KFWC 140755Z AUTO 00000KT 3SM BR CLR 21/21 A2996 RMK AO1 T02050205

KFWC 140735Z AUTO 00000KT 3SM BR CLR 21/21 A2996 RMK AO1 T02060206

KCUL 140754Z AUTO 00000KT 5SM CLR 21/21 A2996 RMK AO2

KCUL 140734Z AUTO 00000KT 7SM CLR 21/21 A2996 RMK AO2

KEVV 140754Z AUTO 08004KT 7SM BKN075 22/21 A2997 RMK AO2 LTG DSNT E RAB0656E20

KOWB 140756Z AUTO 02006KT 10SM -RA FEW014 BKN039 OVC085 22/22 A2997 RMK AO2 LTG

KOWB 140743Z AUTO 03006KT 4SM RA BR FEW012 BKN033 OVC055 22/22 A2997 RMK AO2 LTG

KOWB 140735Z AUTO 08009KT 2 1/2SM +RA BR SCT010 BKN030 OVC037 22/22 A2997 RMK

KOWB 140729Z AUTO 05006KT 1 3/4SM +RA BR SCT010 BKN015 OVC030 22/22 A2998 RMK

KOWB 140720Z AUTO 16003KT 2 1/2SM +RA BR FEW010 BKN028 OVC038 22/22 A2999 RMK

KCEY 140755Z AUTO 00000KT 10SM SCT110 21/20 A2995 RMK AO1

KCEY 140735Z AUTO 00000KT 10SM OVC100 22/21 A2995 RMK AO1

KHOP 140756Z AUTO 20004KT 10SM BKN130 22/22 A2994 RMK AO2 SLP135 T02210221

KDYR 140752Z AUTO 00000KT 10SM SCT005 23/23 A2994 RMK AO2 PNO $

KARG 140817Z AUTO 01004KT 4SM BR SCT001 23/23 A2993 RMK AO2

KARG 140756Z AUTO 01004KT 10SM CLR 23/23 A2993 RMK AO2 SLP134 T02280228

KJBR 140753Z AUTO 04004KT 10SM CLR 24/23 A2993 RMK AO2 SLP131 T02390228 TSNO $

KALN 140755Z AUTO 00000KT 7SM CLR 22/22 A2998 RMK AO2 T02200220

KALN 140735Z AUTO 00000KT 5SM BR SCT030 22/22 A2999 RMK AO2 T02170217

KALN 140755Z AUTO 00000KT 7SM CLR 22/22 A2998 RMK AO2 T02200220

KALN 140735Z AUTO 00000KT 5SM BR SCT030 22/22 A2999 RMK AO2 T02170217

KCOU 140754Z AUTO 09004KT 9SM CLR 22/21 A2999 RMK AO2 SLP144 T02220206

KAJG 140755Z AUTO 31003KT 5SM BR CLR 21/20 A2997 RMK AO2 T02080203

KAJG 140735Z AUTO 00000KT 5SM BR CLR 21/21 A2997 RMK AO2 LTG DSNT SE T02100205

KM30 140755Z AUTO 00000KT 20/20 A2995 RMK AO2 T02020202

KM30 140735Z AUTO 00000KT 20/20 A2995 RMK AO2 T02040204

KDEC 140754Z AUTO 01005KT 10SM CLR 19/18 A3000 RMK AO2 SLP155 T01940183

KIJX 140735Z AUTO 11003KT 1 1/4SM BR BKN003 19/19 A3001 RMK AO2 T01880188


TAFS

KEVV 140638Z 1407/1506 VRB05KT P6SM -SHRA VCTS BKN040CB OVC120

        TEMPO 1407/1410 3SM -TSRA BR BKN006CB

        FM141000 00000KT 6SM BR VCSH SCT045 BKN120

        FM141500 06004KT P6SM SCT025 BKN090

        FM141800 06005KT P6SM VCTS SCT035CB BKN080

        FM150000 VRB03KT P6SM SCT040


Winds Aloft



Pilot Reports

No pilot reports found for area.



Area Forecast



Significant Weather

WAUS43 KKCI 140438 AAA CHIS WA 140438 AMD AIRMET SIERRA UPDT 1 FOR IFR VALID UNTIL 140900 AIRMET IFR...KS MO IL KY OK AR TN MS AL...UPDT FROM 20NNW UIN TO 20SSE AXC TO 50E FAM TO 30WNW BWG TO 50SSE BNA TO GQO TO 20SSE LGC TO 40ESE IGB TO 40NW SQS TO 40NNW ELD TO 30N TXK TO 30ESE MLC TO 50S ICT TO 40W SGF TO 20NNW UIN CIG BLW 010/VIS BLW 3SM BR. CONDS DVLPG BY 06Z. CONDS CONTG BYD 09Z THRU 15Z. OTLK VALID 0900-1500Z AREA 1...IFR ND SD MN BOUNDED BY 70WNW INL-60W YQT-30WNW MSP-DPR-50NNE ISN-70WNW INL CIG BLW 010/VIS BLW 3SM BR. CONDS CONTG THRU 15Z. AREA 2...IFR KS MO IL IN KY OK TX AR TN LA MS AL AND CSTL WTRS BOUNDED BY 20NNW UIN-20SSE AXC-50SSE IIU-40NW PZD-40SSW CEW-20SW HRV-20SE TXK-20ESE END-40SSE ICT-20NNW UIN CIG BLW 010/VIS BLW 3SM BR. CONDS CONTG THRU 15Z.
WAUS44 KKCI 140438 AAA DFWS WA 140438 AMD AIRMET SIERRA UPDT 1 FOR IFR VALID UNTIL 140900 AIRMET IFR...OK AR TN MS AL KS MO IL KY...UPDT FROM 20NNW UIN TO 20SSE AXC TO 50E FAM TO 30WNW BWG TO 50SSE BNA TO GQO TO 20SSE LGC TO 40ESE IGB TO 40NW SQS TO 40NNW ELD TO 30N TXK TO 30ESE MLC TO 50S ICT TO 40W SGF TO 20NNW UIN CIG BLW 010/VIS BLW 3SM BR. CONDS DVLPG BY 06Z. CONDS CONTG BYD 09Z THRU 15Z. OTLK VALID 0900-1500Z...IFR OK TX AR TN LA MS AL KS MO IL IN KY AND CSTL WTRS BOUNDED BY 20NNW UIN-20SSE AXC-50SSE IIU-40NW PZD-40SSW CEW-20SW HRV-20SE TXK-20ESE END-40SSE ICT-20NNW UIN CIG BLW 010/VIS BLW 3SM BR. CONDS CONTG THRU 15Z.